createdAt,value
2018-03-04T00:00:43.803Z,49.50
2018-03-04T00:03:12.087Z,49.70
2018-03-04T00:05:40.358Z,49.60
2018-03-04T00:08:08.629Z,49.80
2018-03-04T00:10:36.920Z,49.80
2018-03-04T00:13:05.199Z,49.70
2018-03-04T00:15:33.486Z,49.90
2018-03-04T00:18:02.609Z,49.80
2018-03-04T00:20:30.834Z,49.70
2018-03-04T00:22:59.125Z,49.90
2018-03-04T00:25:28.080Z,49.90
2018-03-04T00:27:56.364Z,50.10
2018-03-04T00:30:24.607Z,49.90
2018-03-04T00:32:52.891Z,50.00
2018-03-04T00:35:21.352Z,50.00
2018-03-04T00:37:51.097Z,50.70
2018-03-04T00:40:20.198Z,49.90
2018-03-04T00:42:49.376Z,50.10
2018-03-04T00:45:17.874Z,50.00
2018-03-04T00:47:47.071Z,50.10
2018-03-04T00:50:15.410Z,50.20
2018-03-04T00:52:43.638Z,50.10
2018-03-04T00:55:12.640Z,50.20
2018-03-04T00:57:40.882Z,50.10
2018-03-04T01:00:09.145Z,50.30
2018-03-04T01:02:37.432Z,50.30
2018-03-04T01:05:05.673Z,50.30
2018-03-04T01:07:33.962Z,50.30
2018-03-04T01:10:02.364Z,50.20
2018-03-04T01:12:31.471Z,50.10
2018-03-04T01:14:59.835Z,50.20
2018-03-04T01:17:29.598Z,50.30
2018-03-04T01:19:57.960Z,50.50
2018-03-04T01:22:26.312Z,50.40
2018-03-04T01:24:54.520Z,50.50
2018-03-04T01:27:22.765Z,50.50
2018-03-04T01:29:51.846Z,50.60
2018-03-04T01:32:20.328Z,50.60
2018-03-04T01:34:48.557Z,50.60
2018-03-04T01:37:16.891Z,50.80
2018-03-04T01:39:45.128Z,50.70
2018-03-04T01:42:15.021Z,50.70
2018-03-04T01:44:43.386Z,50.80
2018-03-04T01:47:11.646Z,50.70
2018-03-04T01:49:40.662Z,50.70
2018-03-04T01:52:09.200Z,50.80
2018-03-04T01:54:37.457Z,51.00
2018-03-04T01:57:05.689Z,50.90
2018-03-04T01:59:34.004Z,51.10
2018-03-04T02:02:02.250Z,51.00
2018-03-04T02:04:30.533Z,51.00
2018-03-04T02:06:58.826Z,50.90
2018-03-04T02:09:27.297Z,51.00
2018-03-04T02:11:56.348Z,51.30
2018-03-04T02:14:25.433Z,51.30
2018-03-04T02:16:54.633Z,51.30
2018-03-04T02:19:22.880Z,51.30
2018-03-04T02:21:51.152Z,51.40
2018-03-04T02:24:20.070Z,51.40
2018-03-04T02:26:48.289Z,51.50
2018-03-04T02:29:16.609Z,51.80
2018-03-04T02:31:44.885Z,51.80
2018-03-04T02:34:13.894Z,51.90
2018-03-04T02:36:43.020Z,51.90
2018-03-04T02:39:11.290Z,52.00
2018-03-04T02:41:40.377Z,52.20
2018-03-04T02:44:09.593Z,52.10
2018-03-04T02:46:37.941Z,52.20
2018-03-04T02:49:06.258Z,52.10
2018-03-04T02:51:34.506Z,52.20
2018-03-04T02:54:03.531Z,52.30
2018-03-04T02:56:31.869Z,52.30
2018-03-04T02:59:01.671Z,52.10
2018-03-04T03:01:29.907Z,52.20
2018-03-04T03:03:58.184Z,52.10
2018-03-04T03:06:26.457Z,52.20
2018-03-04T03:08:54.699Z,52.30
2018-03-04T03:11:23.694Z,52.60
2018-03-04T03:13:52.088Z,52.60
2018-03-04T03:16:20.425Z,52.50
2018-03-04T03:18:48.646Z,52.10
2018-03-04T03:21:16.934Z,52.00
2018-03-04T03:23:45.190Z,52.20
2018-03-04T03:26:13.563Z,52.30
2018-03-04T03:28:41.993Z,52.40
2018-03-04T03:31:10.255Z,52.10
2018-03-04T03:33:38.490Z,52.10
2018-03-04T03:36:06.757Z,52.00
2018-03-04T03:38:35.935Z,52.20
2018-03-04T03:41:04.192Z,52.20
2018-03-04T03:43:32.461Z,52.30
2018-03-04T03:46:00.969Z,52.40
2018-03-04T03:48:31.245Z,52.50
2018-03-04T03:50:59.489Z,52.40
2018-03-04T03:53:28.667Z,52.50
2018-03-04T03:55:56.925Z,52.60
2018-03-04T03:58:25.745Z,52.60
2018-03-04T04:00:54.894Z,52.50
2018-03-04T04:03:23.166Z,52.60
2018-03-04T04:05:51.415Z,52.40
2018-03-04T04:08:19.708Z,52.50
2018-03-04T04:10:48.777Z,52.60
2018-03-04T04:13:17.036Z,52.80
2018-03-04T04:15:45.306Z,52.60
2018-03-04T04:18:13.595Z,52.40
2018-03-04T04:20:42.649Z,52.60
2018-03-04T04:23:11.669Z,52.50
2018-03-04T04:25:39.924Z,52.70
2018-03-04T04:28:09.069Z,52.60
2018-03-04T04:30:37.345Z,52.90
2018-03-04T04:33:05.633Z,52.90
2018-03-04T04:35:34.130Z,52.60
2018-03-04T04:38:03.272Z,52.70
2018-03-04T04:40:31.881Z,52.70
2018-03-04T04:43:00.911Z,52.70
2018-03-04T04:45:29.348Z,53.00
2018-03-04T04:47:57.594Z,52.70
2018-03-04T04:50:25.845Z,53.00
2018-03-04T04:52:54.093Z,52.90
2018-03-04T04:55:22.345Z,52.80
2018-03-04T04:57:51.371Z,52.80
2018-03-04T05:00:19.730Z,52.80
2018-03-04T05:02:48.106Z,52.50
2018-03-04T05:05:16.342Z,52.50
2018-03-04T05:07:45.448Z,52.70
2018-03-04T05:10:15.262Z,52.70
2018-03-04T05:12:43.490Z,52.70
2018-03-04T05:15:11.820Z,53.00
2018-03-04T05:17:40.957Z,53.00
2018-03-04T05:20:09.214Z,52.90
2018-03-04T05:22:37.477Z,52.90
2018-03-04T05:25:06.526Z,53.00
2018-03-04T05:27:35.491Z,52.90
2018-03-04T05:30:03.741Z,53.10
2018-03-04T05:32:32.969Z,53.00
2018-03-04T05:35:01.380Z,53.10
2018-03-04T05:37:29.665Z,53.20
2018-03-04T05:39:57.921Z,53.20
2018-03-04T05:42:26.174Z,53.10
2018-03-04T05:44:55.378Z,53.30
2018-03-04T05:47:23.738Z,53.20
2018-03-04T05:49:51.987Z,53.40
2018-03-04T05:52:20.249Z,53.40
2018-03-04T05:54:48.575Z,53.40
2018-03-04T05:57:16.818Z,53.30
2018-03-04T05:59:45.054Z,53.20
2018-03-04T06:02:13.473Z,53.30
2018-03-04T06:04:42.646Z,53.30
2018-03-04T06:07:11.866Z,53.20
2018-03-04T06:09:40.093Z,53.20
2018-03-04T06:12:08.416Z,53.20
2018-03-04T06:14:36.658Z,53.30
2018-03-04T06:17:04.923Z,53.10
2018-03-04T06:19:33.282Z,53.30
2018-03-04T06:22:03.365Z,53.50
2018-03-04T06:24:31.586Z,53.50
2018-03-04T06:26:59.853Z,53.60
2018-03-04T06:29:28.098Z,53.50
2018-03-04T06:31:56.361Z,53.50
2018-03-04T06:34:24.625Z,53.30
2018-03-04T06:36:52.878Z,53.30
2018-03-04T06:39:21.242Z,53.30
2018-03-04T06:41:50.309Z,53.50
2018-03-04T06:44:19.428Z,53.50
2018-03-04T06:46:47.711Z,53.50
2018-03-04T06:49:16.212Z,53.30
2018-03-04T06:51:44.476Z,53.50
2018-03-04T06:54:12.724Z,53.40
2018-03-04T06:56:40.997Z,53.60
2018-03-04T06:59:10.014Z,53.60
2018-03-04T07:01:38.977Z,53.50
2018-03-04T07:04:07.977Z,53.10
2018-03-04T07:06:36.386Z,53.30
2018-03-04T07:09:04.719Z,53.20
2018-03-04T07:11:32.973Z,53.40
2018-03-04T07:14:01.471Z,53.20
2018-03-04T07:16:29.719Z,53.30
2018-03-04T07:18:58.786Z,53.40
2018-03-04T07:21:27.287Z,53.20
2018-03-04T07:23:55.597Z,53.20
2018-03-04T07:26:23.833Z,54.00
2018-03-04T07:28:52.105Z,53.30
2018-03-04T07:31:20.338Z,53.50
2018-03-04T07:33:50.120Z,53.50
2018-03-04T07:36:18.382Z,53.40
2018-03-04T07:38:46.653Z,53.30
2018-03-04T07:41:14.965Z,54.00
2018-03-04T07:43:43.200Z,53.30
2018-03-04T07:46:11.567Z,53.30
2018-03-04T07:48:39.905Z,53.60
2018-03-04T07:51:08.210Z,53.40
2018-03-04T07:53:36.507Z,53.30
2018-03-04T07:56:04.767Z,53.50
2018-03-04T07:58:33.111Z,53.30
2018-03-04T08:01:01.354Z,53.40
2018-03-04T08:03:29.613Z,53.30
2018-03-04T08:05:58.886Z,53.10
2018-03-04T08:08:28.708Z,53.30
2018-03-04T08:10:57.970Z,53.30
2018-03-04T08:13:26.453Z,52.40
2018-03-04T08:15:55.772Z,52.50
2018-03-04T08:18:25.253Z,52.00
2018-03-04T08:20:53.540Z,51.60
2018-03-04T08:23:22.596Z,50.20
2018-03-04T08:25:50.946Z,50.40
2018-03-04T08:28:30.192Z,50.10
2018-03-04T08:30:58.395Z,50.10
2018-03-04T08:33:26.701Z,51.40
2018-03-04T08:35:55.743Z,51.60
2018-03-04T08:38:24.115Z,51.40
2018-03-04T08:40:52.528Z,51.40
2018-03-04T08:43:20.800Z,51.30
2018-03-04T08:45:49.134Z,51.50
2018-03-04T08:48:18.134Z,51.50
2018-03-04T08:50:46.443Z,51.40
2018-03-04T08:53:14.672Z,51.50
2018-03-04T08:55:42.937Z,51.30
2018-03-04T08:58:12.042Z,51.30
2018-03-04T09:00:40.338Z,51.30
2018-03-04T09:03:08.641Z,51.30
2018-03-04T09:05:36.891Z,51.20
2018-03-04T09:08:05.216Z,51.10
2018-03-04T09:10:33.545Z,51.40
2018-03-04T09:13:02.699Z,51.60
2018-03-04T09:15:32.653Z,51.60
2018-03-04T09:18:00.990Z,51.40
2018-03-04T09:20:29.224Z,51.40
2018-03-04T09:22:57.528Z,51.90
2018-03-04T09:25:26.736Z,51.80
2018-03-04T09:27:55.120Z,51.60
2018-03-04T09:30:24.159Z,51.50
2018-03-04T09:32:52.426Z,51.60
2018-03-04T09:35:20.730Z,51.50
2018-03-04T09:37:48.968Z,51.30
2018-03-04T09:40:17.206Z,51.20
2018-03-04T09:42:45.608Z,51.40
2018-03-04T09:45:14.548Z,51.10
2018-03-04T09:47:43.562Z,50.80
2018-03-04T09:50:11.814Z,50.70
2018-03-04T09:52:40.263Z,50.80
2018-03-04T09:55:09.413Z,50.70
2018-03-04T09:57:37.679Z,50.50
2018-03-04T10:00:06.110Z,50.60
2018-03-04T10:02:35.214Z,50.10
2018-03-04T10:05:03.586Z,50.20
2018-03-04T10:07:32.681Z,50.30
2018-03-04T10:10:01.714Z,50.30
2018-03-04T10:12:30.039Z,49.50
2018-03-04T10:14:59.129Z,49.10
2018-03-04T10:17:27.377Z,49.40
2018-03-04T10:19:55.699Z,49.10
2018-03-04T10:22:24.818Z,49.20
2018-03-04T10:24:53.420Z,49.10
2018-03-04T10:27:21.801Z,49.20
2018-03-04T10:29:50.068Z,48.70
2018-03-04T10:32:19.386Z,48.40
2018-03-04T10:34:47.709Z,48.30
2018-03-04T10:37:16.005Z,48.00
2018-03-04T10:39:45.180Z,48.60
2018-03-04T10:42:13.549Z,48.40
2018-03-04T10:44:41.957Z,47.90
2018-03-04T10:47:10.238Z,48.00
2018-03-04T10:49:38.551Z,48.00
2018-03-04T10:52:06.810Z,48.00
2018-03-04T10:54:35.106Z,48.20
2018-03-04T10:57:03.405Z,48.80
2018-03-04T10:59:31.831Z,48.80
2018-03-04T11:02:04.029Z,47.90
2018-03-04T11:04:33.210Z,47.80
2018-03-04T11:07:02.321Z,47.60
2018-03-04T11:09:30.653Z,47.60
2018-03-04T11:11:58.930Z,47.70
2018-03-04T11:14:27.194Z,47.50
2018-03-04T11:16:56.312Z,47.10
2018-03-04T11:19:24.642Z,46.90
2018-03-04T11:21:52.925Z,47.00
2018-03-04T11:24:21.205Z,47.00
2018-03-04T11:26:49.489Z,46.60
2018-03-04T11:29:18.553Z,46.80
2018-03-04T11:31:46.797Z,46.40
2018-03-04T11:34:15.063Z,46.60
2018-03-04T11:36:44.106Z,46.40
2018-03-04T11:39:13.573Z,46.50
2018-03-04T11:41:43.894Z,46.30
2018-03-04T11:44:12.162Z,46.20
2018-03-04T11:46:40.735Z,46.00
2018-03-04T11:49:08.985Z,45.80
2018-03-04T11:51:37.295Z,45.90
2018-03-04T11:54:05.550Z,46.00
2018-03-04T11:56:34.732Z,45.80
2018-03-04T11:59:02.973Z,45.60
2018-03-04T12:01:31.225Z,46.40
2018-03-04T12:03:59.524Z,45.40
2018-03-04T12:06:27.759Z,45.40
2018-03-04T12:08:56.864Z,45.40
2018-03-04T12:11:25.706Z,45.40
2018-03-04T12:13:54.807Z,45.10
2018-03-04T12:16:23.296Z,45.20
2018-03-04T12:18:51.539Z,45.10
2018-03-04T12:21:19.783Z,44.90
2018-03-04T12:23:48.051Z,44.90
2018-03-04T12:26:16.309Z,45.00
2018-03-04T12:28:45.444Z,44.90
2018-03-04T12:31:13.703Z,44.70
2018-03-04T12:33:41.994Z,44.70
2018-03-04T12:36:10.327Z,44.60
2018-03-04T12:38:38.624Z,44.70
2018-03-04T12:41:07.086Z,44.30
2018-03-04T12:43:35.325Z,44.30
2018-03-04T12:46:03.572Z,44.30
2018-03-04T12:48:31.846Z,44.30
2018-03-04T12:51:00.109Z,44.00
2018-03-04T12:53:29.157Z,43.70
2018-03-04T12:55:57.596Z,43.90
2018-03-04T12:58:25.985Z,43.60
2018-03-04T13:00:54.230Z,43.40
2018-03-04T13:03:23.374Z,43.20
2018-03-04T13:05:51.630Z,43.20
2018-03-04T13:08:21.436Z,44.20
2018-03-04T13:10:49.827Z,43.70
2018-03-04T13:13:18.169Z,42.60
2018-03-04T13:15:46.553Z,42.20
2018-03-04T13:18:16.015Z,42.60
2018-03-04T13:20:44.435Z,42.30
2018-03-04T13:23:14.368Z,42.50
2018-03-04T13:25:42.578Z,42.30
2018-03-04T13:28:10.863Z,42.70
2018-03-04T13:30:39.995Z,42.60
2018-03-04T13:33:08.376Z,41.60
2018-03-04T13:35:37.516Z,41.10
2018-03-04T13:38:05.959Z,41.20
2018-03-04T13:40:35.369Z,40.90
2018-03-04T13:43:04.233Z,41.00
2018-03-04T13:45:32.445Z,41.10
2018-03-04T13:48:00.703Z,40.70
2018-03-04T13:50:29.776Z,40.60
2018-03-04T13:52:58.090Z,40.50
2018-03-04T13:55:26.358Z,40.60
2018-03-04T13:57:54.707Z,40.80
2018-03-04T14:00:22.962Z,40.50
2018-03-04T14:02:51.277Z,40.40
2018-03-04T14:05:19.552Z,40.50
2018-03-04T14:07:47.886Z,40.20
2018-03-04T14:10:16.102Z,40.20
2018-03-04T14:12:44.324Z,40.00
2018-03-04T14:15:13.257Z,39.90
2018-03-04T14:17:41.471Z,40.20
2018-03-04T14:20:09.722Z,40.30
2018-03-04T14:22:38.880Z,40.00
2018-03-04T14:25:07.553Z,40.10
2018-03-04T14:27:36.891Z,40.20
2018-03-04T14:30:07.227Z,40.10
2018-03-04T14:32:37.333Z,40.40
2018-03-04T14:35:05.565Z,40.40
2018-03-04T14:37:33.799Z,39.80
2018-03-04T14:40:02.837Z,40.10
2018-03-04T14:42:31.178Z,40.00
2018-03-04T14:45:00.301Z,40.00
2018-03-04T14:47:28.543Z,40.00
2018-03-04T14:49:57.671Z,39.90
2018-03-04T14:52:26.042Z,39.80
2018-03-04T14:54:54.282Z,39.50
2018-03-04T14:57:22.861Z,39.70
2018-03-04T14:59:51.159Z,39.80
2018-03-04T15:02:20.190Z,39.60
2018-03-04T15:04:48.456Z,39.50
2018-03-04T15:07:16.730Z,39.60
2018-03-04T15:09:45.051Z,39.50
2018-03-04T15:12:13.344Z,39.60
2018-03-04T15:14:41.566Z,39.30
2018-03-04T15:17:09.861Z,39.70
2018-03-04T15:19:38.098Z,39.70
2018-03-04T15:22:06.613Z,39.80
2018-03-04T15:24:34.885Z,39.80
2018-03-04T15:27:03.122Z,39.90
2018-03-04T15:29:31.429Z,39.80
2018-03-04T15:31:59.721Z,39.90
2018-03-04T15:34:28.176Z,40.20
2018-03-04T15:36:56.549Z,40.00
2018-03-04T15:39:24.896Z,40.00
2018-03-04T15:41:53.174Z,40.40
2018-03-04T15:44:21.857Z,39.70
2018-03-04T15:46:50.081Z,39.80
2018-03-04T15:49:18.354Z,40.00
2018-03-04T15:51:47.563Z,39.70
2018-03-04T15:54:15.934Z,39.60
2018-03-04T15:56:44.209Z,39.80
2018-03-04T15:59:12.486Z,39.90
2018-03-04T16:01:40.759Z,39.60
2018-03-04T16:04:09.134Z,39.80
2018-03-04T16:06:37.494Z,40.80
2018-03-04T16:09:05.774Z,40.00
2018-03-04T16:11:34.048Z,39.90
2018-03-04T16:14:03.162Z,40.00
2018-03-04T16:16:31.390Z,40.10
2018-03-04T16:18:59.718Z,39.80
2018-03-04T16:21:28.214Z,40.00
2018-03-04T16:23:57.297Z,39.80
2018-03-04T16:26:25.572Z,40.00
2018-03-04T16:28:54.081Z,40.00
2018-03-04T16:31:23.897Z,40.20
2018-03-04T16:33:53.112Z,40.30
2018-03-04T16:36:21.352Z,40.10
2018-03-04T16:38:49.643Z,40.40
2018-03-04T16:41:17.878Z,40.40
2018-03-04T16:43:46.129Z,40.30
2018-03-04T16:46:15.177Z,40.70
2018-03-04T16:48:43.390Z,40.70
2018-03-04T16:51:12.366Z,40.70
2018-03-04T16:53:40.769Z,40.80
2018-03-04T16:56:09.109Z,40.50
2018-03-04T16:58:37.365Z,40.80
2018-03-04T17:01:06.444Z,40.60
2018-03-04T17:03:35.541Z,41.00
2018-03-04T17:06:03.785Z,40.60
2018-03-04T17:08:32.066Z,40.60
2018-03-04T17:11:01.091Z,40.80
2018-03-04T17:13:29.450Z,40.70
2018-03-04T17:15:58.007Z,40.70
2018-03-04T17:18:27.112Z,40.80
2018-03-04T17:20:57.020Z,40.20
2018-03-04T17:23:25.303Z,40.20
2018-03-04T17:25:53.541Z,40.30
2018-03-04T17:28:21.989Z,40.60
2018-03-04T17:30:51.006Z,40.70
2018-03-04T17:33:19.247Z,40.60
2018-03-04T17:35:47.503Z,40.80
2018-03-04T17:38:15.976Z,40.50
2018-03-04T17:40:45.726Z,40.50
2018-03-04T17:43:14.071Z,40.50
2018-03-04T17:45:43.637Z,40.80
2018-03-04T17:48:12.124Z,41.00
2018-03-04T17:50:40.418Z,40.70
2018-03-04T17:53:08.654Z,40.80
2018-03-04T17:55:36.918Z,40.90
2018-03-04T17:58:05.463Z,40.60
2018-03-04T18:00:36.408Z,40.80
2018-03-04T18:03:10.795Z,40.60
2018-03-04T18:05:39.049Z,40.60
2018-03-04T18:08:07.376Z,40.90
2018-03-04T18:10:35.696Z,40.70
2018-03-04T18:13:05.683Z,40.80
2018-03-04T18:15:34.800Z,40.60
2018-03-04T18:18:04.177Z,40.90
2018-03-04T18:20:32.528Z,41.10
2018-03-04T18:23:02.688Z,40.90
2018-03-04T18:25:31.835Z,41.60
2018-03-04T18:28:02.594Z,41.80
2018-03-04T18:30:31.080Z,42.00
2018-03-04T18:32:59.564Z,42.20
2018-03-04T18:35:27.942Z,42.20
2018-03-04T18:37:57.311Z,42.40
2018-03-04T18:40:27.178Z,42.40
2018-03-04T18:42:55.531Z,42.60
2018-03-04T18:45:23.806Z,42.40
2018-03-04T18:47:52.221Z,42.60
2018-03-04T18:50:20.724Z,42.70
2018-03-04T18:52:48.980Z,43.00
2018-03-04T18:55:18.065Z,42.80
2018-03-04T18:57:47.911Z,42.90
2018-03-04T19:00:16.184Z,43.00
2018-03-04T19:02:44.452Z,42.90
2018-03-04T19:05:12.767Z,42.60
2018-03-04T19:07:41.096Z,42.90
2018-03-04T19:10:09.461Z,42.90
2018-03-04T19:12:37.876Z,43.00
2018-03-04T19:15:06.130Z,42.80
2018-03-04T19:17:34.455Z,42.90
2018-03-04T19:20:02.748Z,42.70
2018-03-04T19:22:31.009Z,42.70
2018-03-04T19:25:01.765Z,42.80
2018-03-04T19:27:31.713Z,42.90
2018-03-04T19:30:03.762Z,42.60
2018-03-04T19:32:32.162Z,42.60
2018-03-04T19:35:01.237Z,43.00
2018-03-04T19:37:31.536Z,43.00
2018-03-04T19:40:01.445Z,43.00
2018-03-04T19:42:31.313Z,43.10
2018-03-04T19:44:59.639Z,43.10
2018-03-04T19:47:27.849Z,42.90
2018-03-04T19:49:56.741Z,43.20
2018-03-04T19:52:25.048Z,43.50
2018-03-04T19:54:54.316Z,43.30
2018-03-04T19:57:22.586Z,43.60
2018-03-04T19:59:50.954Z,43.70
2018-03-04T20:02:19.238Z,43.90
2018-03-04T20:04:47.555Z,44.30
2018-03-04T20:07:15.814Z,44.20
2018-03-04T20:09:44.121Z,44.30
2018-03-04T20:12:12.379Z,44.20
2018-03-04T20:14:40.775Z,44.40
2018-03-04T20:17:09.095Z,44.30
2018-03-04T20:19:38.211Z,44.10
2018-03-04T20:22:06.652Z,44.20
2018-03-04T20:24:35.659Z,44.10
2018-03-04T20:27:04.830Z,44.30
2018-03-04T20:29:33.114Z,44.20
2018-03-04T20:32:01.810Z,44.30
2018-03-04T20:34:30.094Z,44.50
2018-03-04T20:36:58.421Z,44.40
2018-03-04T20:39:26.652Z,44.30
2018-03-04T20:41:55.729Z,44.30
2018-03-04T20:44:24.038Z,44.10
2018-03-04T20:46:53.052Z,44.00
2018-03-04T20:49:21.431Z,44.20
2018-03-04T20:51:49.805Z,44.30
2018-03-04T20:54:18.113Z,44.40
2018-03-04T20:56:46.540Z,44.40
2018-03-04T20:59:15.638Z,44.60
2018-03-04T21:01:44.053Z,44.60
2018-03-04T21:04:12.621Z,44.60
2018-03-04T21:06:40.873Z,44.50
2018-03-04T21:09:09.145Z,44.50
2018-03-04T21:11:37.459Z,44.20
2018-03-04T21:14:05.719Z,44.20
2018-03-04T21:16:34.056Z,44.10
2018-03-04T21:19:02.354Z,44.20
2018-03-04T21:21:31.359Z,44.10
2018-03-04T21:23:59.639Z,44.20
2018-03-04T21:26:27.966Z,43.80
2018-03-04T21:28:56.394Z,44.10
2018-03-04T21:31:25.462Z,43.90
2018-03-04T21:33:53.717Z,44.00
2018-03-04T21:36:22.084Z,43.90
2018-03-04T21:38:51.142Z,44.20
2018-03-04T21:41:19.429Z,43.90
2018-03-04T21:43:47.667Z,44.20
2018-03-04T21:46:16.806Z,44.40
2018-03-04T21:48:45.074Z,44.10
2018-03-04T21:51:13.327Z,44.50
2018-03-04T21:53:42.474Z,44.80
2018-03-04T21:56:10.765Z,44.80
2018-03-04T21:58:43.090Z,44.80
2018-03-04T22:01:11.413Z,44.80
2018-03-04T22:03:40.724Z,44.90
2018-03-04T22:06:10.753Z,45.20
2018-03-04T22:08:39.925Z,45.20
2018-03-04T22:11:09.168Z,45.70
2018-03-04T22:13:37.423Z,45.70
2018-03-04T22:16:06.422Z,45.80
2018-03-04T22:18:35.605Z,45.80
2018-03-04T22:21:03.806Z,45.80
2018-03-04T22:23:32.114Z,46.10
2018-03-04T22:26:02.192Z,46.10
2018-03-04T22:28:31.457Z,46.50
2018-03-04T22:30:59.713Z,46.50
2018-03-04T22:33:28.340Z,46.30
2018-03-04T22:35:56.560Z,46.60
2018-03-04T22:38:24.891Z,46.70
2018-03-04T22:40:53.127Z,46.90
2018-03-04T22:43:22.421Z,46.90
2018-03-04T22:45:50.669Z,46.90
2018-03-04T22:48:18.949Z,47.10
2018-03-04T22:50:47.196Z,47.00
2018-03-04T22:53:16.336Z,47.20
2018-03-04T22:55:44.622Z,47.20
2018-03-04T22:58:12.893Z,47.50
2018-03-04T23:00:41.664Z,47.50
2018-03-04T23:03:09.948Z,47.50
2018-03-04T23:05:38.298Z,47.20
2018-03-04T23:08:07.526Z,48.10
2018-03-04T23:10:35.877Z,48.00
2018-03-04T23:13:04.161Z,48.10
2018-03-04T23:15:32.440Z,48.30
2018-03-04T23:18:01.445Z,48.30
2018-03-04T23:20:30.592Z,48.00
2018-03-04T23:22:58.890Z,48.10
2018-03-04T23:25:27.258Z,48.30
2018-03-04T23:27:55.484Z,48.70
2018-03-04T23:30:23.715Z,49.20
2018-03-04T23:32:52.770Z,48.60
2018-03-04T23:35:21.009Z,48.70
2018-03-04T23:37:49.422Z,48.60
2018-03-04T23:40:17.685Z,49.20
2018-03-04T23:42:46.037Z,48.60
2018-03-04T23:45:14.387Z,49.20
2018-03-04T23:47:44.307Z,48.60
2018-03-04T23:50:12.555Z,48.70
2018-03-04T23:52:40.781Z,49.00
2018-03-04T23:55:09.057Z,48.60
2018-03-04T23:57:38.800Z,48.20
